Time;durP1;ratioP1;P1;durP2;ratioP2;P2;SDS_P1;SDS_P2;PMS_P1;PMS_P2;Temp;Humidity;BMP_temperature;BMP_pressure;BME280_temperature;BME280_humidity;BME280_pressure;Samples;Min_cycle;Max_cycle;Signal;HPM_P1;HPM_P2
2022/11/05 00:09:29;;;;;;;;;;;9.20;99.90;;;;;;5090719;28;19915;-78
2022/11/05 00:17:36;;;;;;;;;;;9.20;99.90;;;;;;5123343;22;19923;-78
2022/11/05 00:20:01;;;;;;;;;;;9.20;99.90;;;;;;5051317;28;19968;-78
2022/11/05 00:25:15;;;;;;;;;;;9.10;99.90;;;;;;5084366;28;19966;-78
2022/11/05 00:27:45;;;;;;;;;;;9.10;99.90;;;;;;5072209;28;20325;-78
2022/11/05 00:30:12;;;;;;;;;;;9.10;99.90;;;;;;5087679;28;19986;-78
2022/11/05 00:32:38;;;;;;;;;;;9.10;99.90;;;;;;5087824;28;19916;-78
2022/11/05 00:35:05;;;;;;;;;;;9.10;99.90;;;;;;5105569;28;19953;-78
2022/11/05 00:37:31;;;;;;;;;;;9.10;99.90;;;;;;5105029;28;19908;-78
2022/11/05 00:39:56;;;;;;;;;;;9.10;99.90;;;;;;5105262;28;19920;-78
2022/11/05 00:45:06;;;;;;;;;;;9.10;99.90;;;;;;5090191;28;19922;-78
2022/11/05 00:50:20;;;;;;;;;;;9.10;99.90;;;;;;5089884;28;19923;-78
2022/11/05 00:52:55;;;;;;;;;;;9.10;99.90;;;;;;5071019;28;19930;-78
2022/11/05 00:55:28;;;;;;;;;;;9.10;99.90;;;;;;5087456;28;19912;-78
2022/11/05 00:57:55;;;;;;;;;;;9.20;99.90;;;;;;5103795;28;19918;-78
2022/11/05 01:00:21;;;;;;;;;;;9.20;99.90;;;;;;5087240;28;19919;-78
2022/11/05 01:02:46;;;;;;;;;;;9.20;99.90;;;;;;5105063;28;19915;-78
2022/11/05 01:05:12;;;;;;;;;;;9.20;99.90;;;;;;5103951;28;19915;-78
2022/11/05 01:07:38;;;;;;;;;;;9.20;99.90;;;;;;5086751;28;20083;-77
2022/11/05 01:10:04;;;;;;;;;;;9.10;99.90;;;;;;5103318;28;20147;-77
2022/11/05 01:12:30;;;;;;;;;;;9.10;99.90;;;;;;5070269;28;19988;-78
2022/11/05 01:14:56;;;;;;;;;;;9.10;99.90;;;;;;5087099;28;20115;-77
2022/11/05 01:17:22;;;;;;;;;;;9.10;99.90;;;;;;5086338;28;19916;-77
2022/11/05 01:19:47;;;;;;;;;;;9.10;99.90;;;;;;5086904;28;20253;-77
2022/11/05 01:22:13;;;;;;;;;;;9.10;99.90;;;;;;5104747;28;19934;-77
2022/11/05 01:24:39;;;;;;;;;;;9.20;99.90;;;;;;5086534;28;19949;-78
2022/11/05 01:27:04;;;;;;;;;;;9.20;99.90;;;;;;5104368;28;19908;-77
2022/11/05 01:29:30;;;;;;;;;;;9.20;99.90;;;;;;5086502;28;19915;-78
2022/11/05 01:31:55;;;;;;;;;;;9.20;99.90;;;;;;5086539;28;19912;-78
2022/11/05 01:34:21;;;;;;;;;;;9.20;99.90;;;;;;5104448;28;19920;-78
2022/11/05 01:36:47;;;;;;;;;;;9.20;99.90;;;;;;5086129;28;19912;-78
2022/11/05 01:39:12;;;;;;;;;;;9.20;99.90;;;;;;5086168;28;19912;-78
2022/11/05 01:41:38;;;;;;;;;;;9.20;99.90;;;;;;5069576;28;19912;-78
2022/11/05 01:44:04;;;;;;;;;;;9.10;99.90;;;;;;5104363;28;19907;-78
2022/11/05 01:46:37;;;;;;;;;;;9.10;99.90;;;;;;5085886;28;19908;-78
2022/11/05 01:49:16;;;;;;;;;;;9.00;99.90;;;;;;5103046;28;20090;-78
2022/11/05 01:51:42;;;;;;;;;;;9.10;99.90;;;;;;5086308;28;19916;-78
2022/11/05 01:54:09;;;;;;;;;;;9.10;99.90;;;;;;5085932;28;20283;-78
2022/11/05 01:56:37;;;;;;;;;;;9.10;99.90;;;;;;5085738;28;19974;-78
2022/11/05 01:59:07;;;;;;;;;;;9.00;99.90;;;;;;5085951;28;20272;-78
2022/11/05 02:01:32;;;;;;;;;;;9.00;99.90;;;;;;5085917;28;20266;-78
2022/11/05 02:04:00;;;;;;;;;;;9.10;99.90;;;;;;5102807;28;19908;-78
2022/11/05 02:06:26;;;;;;;;;;;9.10;99.90;;;;;;5085965;28;19987;-78
2022/11/05 02:09:06;;;;;;;;;;;9.10;99.90;;;;;;5085507;28;19920;-78
2022/11/05 02:11:32;;;;;;;;;;;9.10;99.90;;;;;;5085753;28;19917;-78
2022/11/05 02:13:57;;;;;;;;;;;9.10;99.90;;;;;;5102698;28;19946;-78
2022/11/05 02:16:37;;;;;;;;;;;9.10;99.90;;;;;;5085368;28;19908;-78
2022/11/05 02:19:32;;;;;;;;;;;9.20;99.90;;;;;;5085528;28;19916;-78
2022/11/05 02:22:06;;;;;;;;;;;9.20;99.90;;;;;;5084895;28;19908;-78
2022/11/05 02:25:10;;;;;;;;;;;9.20;99.90;;;;;;5103260;28;20122;-77
2022/11/05 02:28:02;;;;;;;;;;;9.20;99.90;;;;;;5085096;28;20127;-78
2022/11/05 02:30:46;;;;;;;;;;;9.20;99.90;;;;;;5085354;28;19953;-78
2022/11/05 02:33:15;;;;;;;;;;;9.10;99.90;;;;;;5085401;28;19920;-78
2022/11/05 02:36:05;;;;;;;;;;;9.10;99.90;;;;;;5103233;28;19953;-77
2022/11/05 02:38:55;;;;;;;;;;;9.10;99.90;;;;;;5103062;28;19950;-78
2022/11/05 02:41:46;;;;;;;;;;;9.10;99.90;;;;;;5103292;28;19920;-78
2022/11/05 02:44:25;;;;;;;;;;;9.10;99.90;;;;;;5088019;28;20374;-77
2022/11/05 02:47:43;;;;;;;;;;;9.10;99.90;;;;;;5084799;28;19919;-78
2022/11/05 02:50:18;;;;;;;;;;;9.10;99.90;;;;;;5021165;28;19976;-78
2022/11/05 02:53:10;;;;;;;;;;;9.10;99.90;;;;;;5091502;28;19907;-78
2022/11/05 02:55:37;;;;;;;;;;;9.10;99.90;;;;;;5101752;28;19908;-78
2022/11/05 02:58:03;;;;;;;;;;;9.10;99.90;;;;;;5084643;28;19989;-78
2022/11/05 03:00:39;;;;;;;;;;;9.10;99.90;;;;;;5085099;28;19908;-78
2022/11/05 03:03:06;;;;;;;;;;;9.10;99.90;;;;;;5084893;28;19958;-78
2022/11/05 03:05:38;;;;;;;;;;;9.10;99.90;;;;;;5084928;28;20203;-78
2022/11/05 03:08:08;;;;;;;;;;;9.10;99.90;;;;;;5084647;28;20215;-78
2022/11/05 03:10:40;;;;;;;;;;;9.10;99.90;;;;;;5084697;28;19908;-77
2022/11/05 03:13:22;;;;;;;;;;;9.10;99.90;;;;;;5084915;28;19958;-78
2022/11/05 03:16:10;;;;;;;;;;;9.00;99.90;;;;;;5084790;28;19909;-77
2022/11/05 03:18:43;;;;;;;;;;;9.00;99.90;;;;;;5084740;28;19924;-78
2022/11/05 03:21:13;;;;;;;;;;;9.00;99.90;;;;;;5084830;28;19908;-78
2022/11/05 03:24:02;;;;;;;;;;;9.10;99.90;;;;;;5084954;28;19909;-78
2022/11/05 03:26:32;;;;;;;;;;;9.00;99.90;;;;;;5076553;28;19908;-78
2022/11/05 03:29:00;;;;;;;;;;;9.00;99.90;;;;;;5067931;28;20111;-78
2022/11/05 03:31:26;;;;;;;;;;;9.00;99.90;;;;;;5068086;28;19908;-78
2022/11/05 03:33:52;;;;;;;;;;;9.00;99.90;;;;;;5088220;28;19978;-78
2022/11/05 03:36:45;;;;;;;;;;;9.00;99.90;;;;;;5088454;28;19908;-78
2022/11/05 03:39:13;;;;;;;;;;;9.00;99.90;;;;;;5085947;28;19927;-78
2022/11/05 03:41:42;;;;;;;;;;;9.00;99.90;;;;;;5088695;28;19907;-78
2022/11/05 03:44:07;;;;;;;;;;;9.00;99.90;;;;;;5089027;28;20145;-78
2022/11/05 03:46:38;;;;;;;;;;;9.00;99.90;;;;;;5088339;28;19912;-78
2022/11/05 03:49:05;;;;;;;;;;;8.90;99.90;;;;;;5088497;28;20268;-78
2022/11/05 03:51:45;;;;;;;;;;;8.90;99.90;;;;;;5088459;28;19915;-78
2022/11/05 03:54:11;;;;;;;;;;;8.90;99.90;;;;;;5105122;28;19979;-78
2022/11/05 03:56:36;;;;;;;;;;;8.90;99.90;;;;;;5088109;28;19916;-77
2022/11/05 03:59:02;;;;;;;;;;;8.90;99.90;;;;;;5106280;28;19912;-78
2022/11/05 04:01:27;;;;;;;;;;;8.90;99.90;;;;;;5088416;28;20224;-77
2022/11/05 04:03:53;;;;;;;;;;;9.00;99.90;;;;;;5106223;28;19953;-77
2022/11/05 04:14:31;;;;;;;;;;;9.10;99.90;;;;;;5106157;28;19954;-79
2022/11/05 04:17:08;;;;;;;;;;;9.10;99.90;;;;;;5105738;28;19908;-78
2022/11/05 04:25:06;;;;;;;;;;;9.20;99.90;;;;;;5089986;28;20185;-78
2022/11/05 04:27:32;;;;;;;;;;;9.20;99.90;;;;;;5087523;28;19908;-77
2022/11/05 04:32:41;;;;;;;;;;;9.20;99.90;;;;;;5105886;28;19923;-77
2022/11/05 04:35:07;;;;;;;;;;;9.10;99.90;;;;;;5104600;28;19908;-77
2022/11/05 04:37:33;;;;;;;;;;;9.10;99.90;;;;;;5087204;28;19914;-78
2022/11/05 04:39:58;;;;;;;;;;;9.20;99.90;;;;;;5105384;28;19912;-78
2022/11/05 04:42:24;;;;;;;;;;;9.20;99.90;;;;;;5087532;28;19922;-78
2022/11/05 04:44:50;;;;;;;;;;;9.20;99.90;;;;;;5086761;28;19943;-78
2022/11/05 04:47:15;;;;;;;;;;;9.20;99.90;;;;;;5087008;28;19973;-78
2022/11/05 04:49:41;;;;;;;;;;;9.10;99.90;;;;;;5087463;28;20191;-78
2022/11/05 04:52:07;;;;;;;;;;;9.20;99.90;;;;;;5087462;28;20114;-78
2022/11/05 04:54:32;;;;;;;;;;;9.10;99.90;;;;;;5105069;28;20110;-78
2022/11/05 04:56:58;;;;;;;;;;;9.10;99.90;;;;;;5104957;28;19911;-78
2022/11/05 04:59:24;;;;;;;;;;;9.10;99.90;;;;;;5104554;28;19984;-77
2022/11/05 05:01:52;;;;;;;;;;;9.10;99.90;;;;;;5105120;28;19935;-77
2022/11/05 05:04:19;;;;;;;;;;;9.10;99.90;;;;;;5105478;28;19915;-78
2022/11/05 05:06:45;;;;;;;;;;;9.10;99.90;;;;;;5104799;28;19908;-78
2022/11/05 05:09:10;;;;;;;;;;;9.10;99.90;;;;;;5086178;28;19908;-78
2022/11/05 05:11:36;;;;;;;;;;;9.10;99.90;;;;;;5105017;28;20249;-78
2022/11/05 05:14:01;;;;;;;;;;;9.10;99.90;;;;;;5104891;28;19995;-77
2022/11/05 05:16:27;;;;;;;;;;;9.10;99.90;;;;;;5104438;28;19931;-77
2022/11/05 05:18:53;;;;;;;;;;;9.00;99.90;;;;;;5104670;28;19939;-79
2022/11/05 05:21:37;;;;;;;;;;;8.90;99.90;;;;;;5085547;28;19912;-79
2022/11/05 05:24:13;;;;;;;;;;;8.90;99.90;;;;;;5095875;28;19908;-79
2022/11/05 05:26:41;;;;;;;;;;;8.90;99.90;;;;;;5082585;28;19915;-80
2022/11/05 05:29:07;;;;;;;;;;;8.90;99.90;;;;;;5086080;28;19970;-78
2022/11/05 05:31:33;;;;;;;;;;;8.90;99.90;;;;;;5081639;28;19916;-78
2022/11/05 05:33:58;;;;;;;;;;;8.90;99.90;;;;;;5064873;28;19908;-78
2022/11/05 05:36:24;;;;;;;;;;;8.90;99.90;;;;;;5095857;28;19908;-79
2022/11/05 05:38:50;;;;;;;;;;;9.00;99.90;;;;;;5093253;28;19917;-78
2022/11/05 05:41:16;;;;;;;;;;;8.90;99.90;;;;;;5097856;28;19954;-77
2022/11/05 05:43:41;;;;;;;;;;;9.00;99.90;;;;;;5101623;28;19955;-78
2022/11/05 05:46:09;;;;;;;;;;;9.00;99.90;;;;;;5093216;28;19920;-75
2022/11/05 05:48:35;;;;;;;;;;;9.00;99.90;;;;;;5075599;28;19908;-77
2022/11/05 05:51:05;;;;;;;;;;;9.00;99.90;;;;;;5093358;28;19923;-77
2022/11/05 05:53:30;;;;;;;;;;;9.00;99.90;;;;;;5063998;28;19912;-76
2022/11/05 05:55:56;;;;;;;;;;;8.90;99.90;;;;;;5102120;28;20285;-75
2022/11/05 05:58:23;;;;;;;;;;;8.90;99.90;;;;;;5098407;28;19948;-80
2022/11/05 06:00:48;;;;;;;;;;;8.90;99.90;;;;;;5067630;28;19915;-80
2022/11/05 06:03:14;;;;;;;;;;;8.80;99.90;;;;;;5091922;28;19912;-79
2022/11/05 06:05:40;;;;;;;;;;;8.80;99.90;;;;;;5094577;28;19912;-79
2022/11/05 06:08:05;;;;;;;;;;;8.70;99.90;;;;;;5084758;28;19950;-74
2022/11/05 06:10:31;;;;;;;;;;;8.80;99.90;;;;;;5091624;28;19992;-73
2022/11/05 06:13:00;;;;;;;;;;;8.70;99.90;;;;;;5103214;28;19954;-78
2022/11/05 06:15:25;;;;;;;;;;;8.80;99.90;;;;;;5085726;28;19915;-77
2022/11/05 06:17:51;;;;;;;;;;;8.80;99.90;;;;;;5098433;28;19951;-82
2022/11/05 06:20:17;;;;;;;;;;;8.80;99.90;;;;;;5104577;28;19924;-78
2022/11/05 06:22:43;;;;;;;;;;;8.90;99.90;;;;;;5102606;28;19908;-80
2022/11/05 06:25:08;;;;;;;;;;;8.90;99.90;;;;;;5087445;28;19975;-75
2022/11/05 06:27:35;;;;;;;;;;;9.00;99.90;;;;;;5094826;28;20299;-75
2022/11/05 06:30:02;;;;;;;;;;;9.00;99.90;;;;;;5098771;28;19995;-75
2022/11/05 06:32:29;;;;;;;;;;;9.00;99.90;;;;;;5104181;28;19974;-79
2022/11/05 06:34:55;;;;;;;;;;;9.00;99.90;;;;;;5099575;28;19916;-79
2022/11/05 06:37:20;;;;;;;;;;;9.00;99.90;;;;;;5101856;28;19933;-78
2022/11/05 06:39:46;;;;;;;;;;;9.00;99.90;;;;;;5096608;28;20302;-76
2022/11/05 06:42:12;;;;;;;;;;;9.00;99.90;;;;;;5103254;28;19950;-74
2022/11/05 06:44:37;;;;;;;;;;;9.10;99.90;;;;;;5093712;28;19912;-74
2022/11/05 06:47:03;;;;;;;;;;;9.10;99.90;;;;;;5082598;28;19907;-74
2022/11/05 06:49:29;;;;;;;;;;;9.10;99.90;;;;;;5067467;28;19912;-74
2022/11/05 06:51:56;;;;;;;;;;;9.10;99.90;;;;;;5062434;28;20114;-79
2022/11/05 06:54:22;;;;;;;;;;;9.10;99.90;;;;;;5094736;28;19916;-72
2022/11/05 06:56:47;;;;;;;;;;;9.20;99.90;;;;;;5101533;28;19908;-72
2022/11/05 06:59:13;;;;;;;;;;;9.20;99.90;;;;;;5102490;28;19916;-73
2022/11/05 07:01:39;;;;;;;;;;;9.20;99.90;;;;;;5103141;28;19971;-72
2022/11/05 07:04:05;;;;;;;;;;;9.20;99.90;;;;;;5051704;28;20226;-72
2022/11/05 07:06:30;;;;;;;;;;;9.20;99.90;;;;;;5102331;28;19908;-73
2022/11/05 07:08:56;;;;;;;;;;;9.20;99.90;;;;;;5084615;28;19916;-72
2022/11/05 07:11:22;;;;;;;;;;;9.20;99.90;;;;;;5068086;28;19908;-72
2022/11/05 07:13:48;;;;;;;;;;;9.20;99.90;;;;;;5103073;28;19983;-72
2022/11/05 07:16:13;;;;;;;;;;;9.20;99.90;;;;;;5084621;28;19912;-72
2022/11/05 07:18:41;;;;;;;;;;;9.20;99.90;;;;;;5101650;28;20416;-73
2022/11/05 07:21:07;;;;;;;;;;;9.20;99.90;;;;;;5051398;28;19949;-72
2022/11/05 07:23:33;;;;;;;;;;;9.20;99.90;;;;;;5102614;28;20195;-72
2022/11/05 07:25:58;;;;;;;;;;;9.30;99.90;;;;;;5084319;28;19961;-72
2022/11/05 07:28:25;;;;;;;;;;;9.40;99.90;;;;;;5084513;28;19909;-74
2022/11/05 07:30:50;;;;;;;;;;;9.40;99.90;;;;;;5084328;28;20064;-75
2022/11/05 07:33:16;;;;;;;;;;;9.40;99.90;;;;;;5099032;28;20207;-74
2022/11/05 07:35:42;;;;;;;;;;;9.40;99.90;;;;;;5092392;28;19979;-73
2022/11/05 07:38:07;;;;;;;;;;;9.40;99.90;;;;;;5101343;28;20297;-73
2022/11/05 07:40:36;;;;;;;;;;;9.50;99.90;;;;;;5110613;28;20111;-76
2022/11/05 07:43:02;;;;;;;;;;;9.50;99.90;;;;;;5095558;28;19939;-75
2022/11/05 07:45:28;;;;;;;;;;;9.60;99.90;;;;;;5100134;28;19908;-73
2022/11/05 07:47:59;;;;;;;;;;;9.60;99.90;;;;;;5101777;28;19915;-74
2022/11/05 07:50:26;;;;;;;;;;;9.70;99.90;;;;;;5092616;28;19908;-77
2022/11/05 07:52:52;;;;;;;;;;;9.70;99.90;;;;;;5102210;28;19990;-76
2022/11/05 07:55:18;;;;;;;;;;;9.70;99.90;;;;;;5101718;28;20084;-76
2022/11/05 07:57:45;;;;;;;;;;;9.70;99.90;;;;;;5073010;28;19926;-75
2022/11/05 08:00:13;;;;;;;;;;;9.80;99.90;;;;;;5095539;28;19923;-75
2022/11/05 08:02:39;;;;;;;;;;;9.80;99.90;;;;;;5082285;28;20234;-75
2022/11/05 08:05:05;;;;;;;;;;;9.80;99.90;;;;;;5100217;28;19944;-73
2022/11/05 08:07:41;;;;;;;;;;;9.80;99.90;;;;;;5091951;28;20222;-76
2022/11/05 08:10:07;;;;;;;;;;;9.90;99.90;;;;;;5094776;28;20203;-76
2022/11/05 08:12:32;;;;;;;;;;;10.00;99.90;;;;;;5097776;28;19912;-78
2022/11/05 08:14:58;;;;;;;;;;;10.00;99.90;;;;;;5088519;28;19912;-77
2022/11/05 08:17:24;;;;;;;;;;;10.00;99.90;;;;;;5102348;28;19968;-85
2022/11/05 08:19:49;;;;;;;;;;;10.10;99.90;;;;;;5087071;28;19931;-85
2022/11/05 08:22:15;;;;;;;;;;;10.20;99.90;;;;;;5088049;28;19912;-83
2022/11/05 08:24:41;;;;;;;;;;;10.30;99.90;;;;;;5081490;28;20280;-78
2022/11/05 08:27:07;;;;;;;;;;;10.20;99.90;;;;;;5050917;28;20117;-74
2022/11/05 08:29:32;;;;;;;;;;;10.20;99.90;;;;;;5069897;28;19932;-76
2022/11/05 08:31:58;;;;;;;;;;;10.20;99.90;;;;;;5080922;28;20087;-73
2022/11/05 08:34:24;;;;;;;;;;;10.10;99.90;;;;;;5105454;28;19946;-77
2022/11/05 08:36:49;;;;;;;;;;;10.10;99.90;;;;;;5105275;28;19923;-80
2022/11/05 08:39:17;;;;;;;;;;;10.00;99.90;;;;;;5108305;28;19961;-82
2022/11/05 08:41:44;;;;;;;;;;;10.00;99.90;;;;;;5106245;28;19908;-79
2022/11/05 08:44:10;;;;;;;;;;;10.00;99.90;;;;;;5105876;28;19911;-80
2022/11/05 08:46:35;;;;;;;;;;;10.00;99.90;;;;;;5106338;28;19908;-80
2022/11/05 08:49:02;;;;;;;;;;;10.00;99.90;;;;;;5106491;28;19953;-80
2022/11/05 08:51:27;;;;;;;;;;;10.00;99.90;;;;;;5107063;28;19969;-81
2022/11/05 08:53:53;;;;;;;;;;;10.00;99.90;;;;;;5104644;28;19908;-76
2022/11/05 08:56:19;;;;;;;;;;;10.10;99.90;;;;;;5104386;28;19912;-77
2022/11/05 08:58:45;;;;;;;;;;;10.10;99.90;;;;;;5106470;28;20130;-80
2022/11/05 09:01:10;;;;;;;;;;;10.20;99.90;;;;;;5105728;28;19912;-76
2022/11/05 09:03:36;;;;;;;;;;;10.20;99.90;;;;;;5105397;28;19922;-77
2022/11/05 09:06:02;;;;;;;;;;;10.30;99.90;;;;;;5105013;28;19954;-76
2022/11/05 09:08:28;;;;;;;;;;;10.30;99.90;;;;;;5104787;28;19908;-77
2022/11/05 09:10:53;;;;;;;;;;;10.30;99.90;;;;;;5081882;28;19916;-76
2022/11/05 09:13:19;;;;;;;;;;;10.40;99.90;;;;;;5093800;28;19919;-76
2022/11/05 09:15:46;;;;;;;;;;;10.40;99.90;;;;;;5094739;28;19908;-77
2022/11/05 09:18:12;;;;;;;;;;;10.50;99.90;;;;;;5091765;28;19913;-77
2022/11/05 09:20:39;;;;;;;;;;;10.50;99.90;;;;;;5086865;28;19919;-77
2022/11/05 09:23:08;;;;;;;;;;;10.60;99.90;;;;;;5059426;28;19908;-77
2022/11/05 09:25:34;;;;;;;;;;;10.60;99.90;;;;;;5094494;28;20034;-78
2022/11/05 09:28:16;;;;;;;;;;;10.60;99.90;;;;;;5094949;28;20203;-78
2022/11/05 09:30:43;;;;;;;;;;;10.60;99.90;;;;;;5096630;28;20223;-75
2022/11/05 09:33:09;;;;;;;;;;;10.70;99.90;;;;;;5104544;28;19915;-76
2022/11/05 09:35:37;;;;;;;;;;;10.80;99.90;;;;;;5104429;28;19908;-76
2022/11/05 09:38:03;;;;;;;;;;;10.90;99.90;;;;;;5105847;28;19919;-79
2022/11/05 09:40:29;;;;;;;;;;;11.00;99.90;;;;;;5105606;28;19980;-81
2022/11/05 09:42:55;;;;;;;;;;;11.10;99.90;;;;;;5087725;28;19908;-81
2022/11/05 09:45:21;;;;;;;;;;;11.20;99.90;;;;;;5087354;28;19924;-81
2022/11/05 09:47:52;;;;;;;;;;;11.20;99.90;;;;;;5105149;28;19908;-81
2022/11/05 09:50:47;;;;;;;;;;;11.20;99.90;;;;;;5087696;28;19908;-81
2022/11/05 09:53:14;;;;;;;;;;;11.20;99.90;;;;;;5087589;28;20092;-73
2022/11/05 09:55:41;;;;;;;;;;;11.30;99.90;;;;;;5103623;28;20156;-76
2022/11/05 09:58:16;;;;;;;;;;;11.30;99.90;;;;;;5103068;28;19974;-78
2022/11/05 10:00:41;;;;;;;;;;;11.30;99.90;;;;;;5086204;28;19989;-76
2022/11/05 10:03:11;;;;;;;;;;;11.20;99.90;;;;;;5085282;28;19912;-76
2022/11/05 10:05:36;;;;;;;;;;;11.20;99.90;;;;;;5086185;28;19970;-71
2022/11/05 10:08:05;;;;;;;;;;;11.10;99.90;;;;;;5102284;28;19908;-76
2022/11/05 10:10:36;;;;;;;;;;;11.10;99.90;;;;;;5085840;28;19943;-77
2022/11/05 10:13:10;;;;;;;;;;;11.10;99.90;;;;;;5103909;28;19908;-79
2022/11/05 10:15:39;;;;;;;;;;;11.10;99.90;;;;;;5085906;28;20146;-81
2022/11/05 10:18:18;;;;;;;;;;;11.20;99.90;;;;;;5059362;28;19940;-74
2022/11/05 10:20:43;;;;;;;;;;;11.20;99.90;;;;;;5069380;28;19915;-73
2022/11/05 10:23:14;;;;;;;;;;;11.30;99.90;;;;;;5103502;28;19935;-76
2022/11/05 10:25:49;;;;;;;;;;;11.30;99.90;;;;;;5100509;28;19993;-77
2022/11/05 10:28:22;;;;;;;;;;;11.40;99.90;;;;;;5084349;28;19961;-77
2022/11/05 10:30:50;;;;;;;;;;;11.50;99.90;;;;;;5102617;28;19975;-75
2022/11/05 10:33:21;;;;;;;;;;;11.60;99.90;;;;;;5078403;28;19933;-75
2022/11/05 10:35:49;;;;;;;;;;;11.60;99.90;;;;;;5076726;28;19920;-79
2022/11/05 10:38:15;;;;;;;;;;;11.70;99.90;;;;;;5081560;28;19964;-69
2022/11/05 10:40:53;;;;;;;;;;;11.80;99.90;;;;;;5079183;28;20034;-73
2022/11/05 10:43:23;;;;;;;;;;;12.00;99.90;;;;;;5096695;28;19939;-75
2022/11/05 10:45:55;;;;;;;;;;;12.10;99.90;;;;;;5065607;28;19915;-74
2022/11/05 10:48:49;;;;;;;;;;;12.20;99.90;;;;;;5086544;28;19984;-80
2022/11/05 10:51:15;;;;;;;;;;;12.10;99.90;;;;;;5082027;28;19931;-76
2022/11/05 10:53:46;;;;;;;;;;;12.00;99.90;;;;;;5084733;28;20321;-73
2022/11/05 10:56:27;;;;;;;;;;;11.90;99.90;;;;;;5088601;28;19984;-71
2022/11/05 10:58:55;;;;;;;;;;;11.90;99.90;;;;;;5093964;28;19908;-78
2022/11/05 11:01:21;;;;;;;;;;;11.80;99.90;;;;;;5086777;28;19912;-76
2022/11/05 11:03:50;;;;;;;;;;;11.80;99.90;;;;;;5093780;28;20092;-76
2022/11/05 11:06:26;;;;;;;;;;;11.80;99.90;;;;;;5070494;28;20231;-73
2022/11/05 11:08:53;;;;;;;;;;;11.80;99.90;;;;;;5068606;28;20250;-72
2022/11/05 11:11:36;;;;;;;;;;;11.80;99.90;;;;;;5075003;28;20138;-72
2022/11/05 11:14:03;;;;;;;;;;;11.70;99.90;;;;;;5091630;28;19928;-72
2022/11/05 11:16:34;;;;;;;;;;;11.70;99.90;;;;;;5090185;28;19919;-71
2022/11/05 11:19:00;;;;;;;;;;;11.70;99.90;;;;;;5091511;28;19940;-77
2022/11/05 11:21:27;;;;;;;;;;;11.70;99.90;;;;;;5092772;28;19912;-84
2022/11/05 11:23:57;;;;;;;;;;;11.70;99.90;;;;;;5077949;28;19943;-82
2022/11/05 11:26:25;;;;;;;;;;;11.70;99.90;;;;;;5090904;28;20189;-79
2022/11/05 11:29:04;;;;;;;;;;;11.70;99.90;;;;;;5092559;28;19987;-78
2022/11/05 11:31:30;;;;;;;;;;;11.70;99.90;;;;;;5076026;28;20223;-79
2022/11/05 11:34:05;;;;;;;;;;;11.80;99.90;;;;;;5091733;28;20203;-78
2022/11/05 11:36:35;;;;;;;;;;;11.80;99.90;;;;;;5090639;28;20042;-78
2022/11/05 11:39:03;;;;;;;;;;;11.80;99.90;;;;;;5074141;28;19922;-78
2022/11/05 11:41:31;;;;;;;;;;;11.90;99.90;;;;;;5059246;28;19918;-78
2022/11/05 11:44:09;;;;;;;;;;;11.80;99.90;;;;;;5097552;28;19915;-77
2022/11/05 11:46:35;;;;;;;;;;;11.80;99.90;;;;;;5079796;28;19919;-78
2022/11/05 11:49:01;;;;;;;;;;;11.90;99.90;;;;;;5059173;28;20207;-78
2022/11/05 11:51:40;;;;;;;;;;;11.80;99.90;;;;;;5075179;28;19924;-78
2022/11/05 11:54:17;;;;;;;;;;;11.90;99.90;;;;;;5098701;28;19913;-77
2022/11/05 11:56:44;;;;;;;;;;;12.10;99.90;;;;;;5103359;28;19919;-78
2022/11/05 11:59:19;;;;;;;;;;;12.30;99.90;;;;;;5099591;28;19940;-79
2022/11/05 12:01:57;;;;;;;;;;;12.40;99.90;;;;;;5084086;28;19915;-78
2022/11/05 12:04:23;;;;;;;;;;;12.50;99.90;;;;;;5097678;28;19924;-74
2022/11/05 12:07:01;;;;;;;;;;;12.50;99.90;;;;;;5100470;28;20346;-77
2022/11/05 12:09:38;;;;;;;;;;;12.50;99.90;;;;;;5101811;28;19912;-78
2022/11/05 12:12:09;;;;;;;;;;;12.50;99.90;;;;;;5083311;28;19975;-76
2022/11/05 12:14:41;;;;;;;;;;;12.60;99.90;;;;;;5076328;28;19939;-75
2022/11/05 12:17:44;;;;;;;;;;;12.70;99.90;;;;;;5106677;28;19920;-80
2022/11/05 12:20:15;;;;;;;;;;;13.00;99.90;;;;;;5105338;28;20009;-84
2022/11/05 12:23:00;;;;;;;;;;;13.20;99.90;;;;;;5114363;28;20185;-83
2022/11/05 12:25:39;;;;;;;;;;;13.40;99.90;;;;;;5111946;28;19908;-80
2022/11/05 12:28:33;;;;;;;;;;;13.70;99.90;;;;;;5097993;28;19971;-78
2022/11/05 12:31:02;;;;;;;;;;;14.20;99.90;;;;;;5096415;28;19954;-77
2022/11/05 12:33:53;;;;;;;;;;;14.50;99.90;;;;;;5085792;28;20291;-75
2022/11/05 12:36:59;;;;;;;;;;;14.70;99.90;;;;;;5080934;28;19938;-75
2022/11/05 12:39:37;;;;;;;;;;;14.90;99.90;;;;;;5055026;28;19919;-79
2022/11/05 12:42:06;;;;;;;;;;;15.10;99.90;;;;;;5098189;28;19984;-77
2022/11/05 12:44:51;;;;;;;;;;;15.10;99.90;;;;;;5093582;28;20007;-76
2022/11/05 12:47:47;;;;;;;;;;;15.00;99.90;;;;;;5084926;28;20092;-77
2022/11/05 12:50:42;;;;;;;;;;;15.10;99.90;;;;;;5102534;28;19916;-77
2022/11/05 12:53:30;;;;;;;;;;;15.20;99.90;;;;;;5084245;28;19912;-75
2022/11/05 12:55:57;;;;;;;;;;;15.20;99.90;;;;;;5097265;28;19916;-75
2022/11/05 12:58:40;;;;;;;;;;;14.90;99.90;;;;;;5090728;28;19940;-77
2022/11/05 13:01:13;;;;;;;;;;;14.60;99.90;;;;;;5081803;28;19912;-75
2022/11/05 13:03:42;;;;;;;;;;;14.40;99.90;;;;;;5079153;28;19919;-77
2022/11/05 13:06:16;;;;;;;;;;;14.10;99.90;;;;;;5092062;28;19919;-77
2022/11/05 13:08:56;;;;;;;;;;;13.90;99.90;;;;;;5076495;28;20023;-79
2022/11/05 13:11:37;;;;;;;;;;;13.60;99.90;;;;;;5100866;28;20196;-73
2022/11/05 13:14:20;;;;;;;;;;;13.30;99.90;;;;;;5081555;28;19974;-74
2022/11/05 13:16:51;;;;;;;;;;;13.00;99.90;;;;;;5099826;28;19930;-79
2022/11/05 13:19:36;;;;;;;;;;;12.90;99.90;;;;;;5104374;28;19926;-80
2022/11/05 13:22:15;;;;;;;;;;;12.70;99.90;;;;;;5080132;28;20207;-76
2022/11/05 13:24:48;;;;;;;;;;;12.60;99.90;;;;;;5081762;28;19919;-82
2022/11/05 13:27:41;;;;;;;;;;;12.50;99.90;;;;;;5083462;28;19924;-83
2022/11/05 13:30:36;;;;;;;;;;;12.50;99.90;;;;;;5091229;28;19947;-83
2022/11/05 13:33:19;;;;;;;;;;;12.40;99.90;;;;;;5082931;28;19920;-74
2022/11/05 13:38:58;;;;;;;;;;;12.40;99.90;;;;;;5092613;28;19923;-73
2022/11/05 13:41:28;;;;;;;;;;;12.30;99.90;;;;;;5079985;28;20020;-74
2022/11/05 13:44:01;;;;;;;;;;;12.30;99.90;;;;;;5088378;28;19935;-74
2022/11/05 13:46:36;;;;;;;;;;;12.40;99.90;;;;;;5094344;28;19908;-73
2022/11/05 13:49:17;;;;;;;;;;;12.40;99.90;;;;;;5083851;28;19916;-73
2022/11/05 13:51:49;;;;;;;;;;;12.50;99.90;;;;;;5090540;28;19909;-78
2022/11/05 13:54:27;;;;;;;;;;;12.50;99.90;;;;;;5098086;28;19915;-73
2022/11/05 13:57:09;;;;;;;;;;;12.60;99.90;;;;;;5091512;28;20238;-74
2022/11/05 14:00:11;;;;;;;;;;;12.60;99.90;;;;;;5102936;28;19908;-73
2022/11/05 14:02:54;;;;;;;;;;;12.70;99.90;;;;;;5061694;28;19912;-74
2022/11/05 14:05:30;;;;;;;;;;;12.60;99.90;;;;;;5088719;28;19912;-70
2022/11/05 14:07:57;;;;;;;;;;;12.50;99.90;;;;;;5103427;28;19915;-71
2022/11/05 14:10:29;;;;;;;;;;;12.40;99.90;;;;;;5103905;28;19915;-76
2022/11/05 14:12:56;;;;;;;;;;;12.30;99.90;;;;;;5097285;28;19912;-74
2022/11/05 14:15:28;;;;;;;;;;;12.30;99.90;;;;;;5092240;28;19931;-74
2022/11/05 14:18:01;;;;;;;;;;;12.20;99.90;;;;;;5085449;28;19924;-74
2022/11/05 14:20:29;;;;;;;;;;;12.20;99.90;;;;;;5096663;28;20122;-74
2022/11/05 14:23:21;;;;;;;;;;;12.20;99.90;;;;;;5100750;28;20013;-73
2022/11/05 14:25:49;;;;;;;;;;;12.10;99.90;;;;;;5103412;28;19916;-73
2022/11/05 14:28:33;;;;;;;;;;;12.10;99.90;;;;;;5103001;28;19908;-73
2022/11/05 14:30:59;;;;;;;;;;;12.00;99.90;;;;;;5103449;28;20423;-73
2022/11/05 14:33:24;;;;;;;;;;;11.80;99.90;;;;;;5103553;28;19908;-73
2022/11/05 14:35:51;;;;;;;;;;;11.70;99.90;;;;;;5103577;28;19908;-73
2022/11/05 14:38:24;;;;;;;;;;;11.60;99.90;;;;;;5085241;28;19926;-73
2022/11/05 14:41:00;;;;;;;;;;;11.60;99.90;;;;;;5085416;28;19943;-73
2022/11/05 14:43:26;;;;;;;;;;;11.50;99.90;;;;;;5085157;28;19908;-73
2022/11/05 14:45:53;;;;;;;;;;;11.40;99.90;;;;;;5085239;28;19908;-75
2022/11/05 14:48:39;;;;;;;;;;;11.40;99.90;;;;;;5102893;28;19908;-74
2022/11/05 14:51:32;;;;;;;;;;;11.40;99.90;;;;;;5083760;28;20106;-74
2022/11/05 14:54:04;;;;;;;;;;;11.40;99.90;;;;;;5075416;28;19992;-74
2022/11/05 14:56:43;;;;;;;;;;;11.30;99.90;;;;;;5096549;28;19922;-74
2022/11/05 14:59:51;;;;;;;;;;;11.30;99.90;;;;;;5098588;28;19958;-74
2022/11/05 15:02:19;;;;;;;;;;;11.30;99.90;;;;;;5065731;28;20108;-75
2022/11/05 15:04:46;;;;;;;;;;;11.30;99.90;;;;;;5083670;28;19915;-74
2022/11/05 15:07:20;;;;;;;;;;;11.20;99.90;;;;;;5102503;28;19915;-74
2022/11/05 15:09:48;;;;;;;;;;;11.20;99.90;;;;;;5102986;28;20226;-73
2022/11/05 15:12:29;;;;;;;;;;;11.10;99.90;;;;;;5067779;28;19943;-74
2022/11/05 15:14:57;;;;;;;;;;;11.10;99.90;;;;;;5102866;28;19915;-74
2022/11/05 15:17:28;;;;;;;;;;;11.00;99.90;;;;;;5084248;28;19912;-74
2022/11/05 15:20:08;;;;;;;;;;;11.00;99.90;;;;;;5085118;28;20195;-74
2022/11/05 15:22:42;;;;;;;;;;;10.90;99.90;;;;;;5085176;28;19954;-74
2022/11/05 15:25:23;;;;;;;;;;;10.90;99.90;;;;;;5067458;28;19935;-74
2022/11/05 15:28:05;;;;;;;;;;;10.90;99.90;;;;;;5084011;28;19916;-75